Latest Coastal Weather Observations for Lucinda

IDQ60701

Issued at 1:12 pm EST Sunday 24 May 2015 (issued every 10 minutes, with the page automatically refreshed every 10 minutes)

About coastal observations | Map of coastal stations | Coastal observations for QLD | Marine services | Other Formats
Station Details ID: 032141 Name: LUCINDA POINT Lat: -18.52 Lon: 146.39 Height: 10.0 m
Data from the previous 72 hours. | See also: Recent months for locations in Queensland
Date/Time
EST
Temp

°C
Wind Pressure Rain
since 9am
mm
Weather Cloud Vis
km
Sea
Height
m
Swell
Dir
 
Speed
knots
Gust
knots
hPa Trend Height
m
Period
s
Dir
24/01:00pm 22.4 S 13 16 1019.6 - 0.0 - - - - - - -
24/12:30pm 22.1 S 13 15 1020.0 - 0.0 - - - - - - -
24/12:00pm 22.1 S 12 15 1020.3 - 0.0 - - - - - - -
24/11:30am 21.9 S 12 15 1020.8 - 0.0 - - - - - - -
24/11:00am 21.8 S 11 14 1021.0 - 0.0 - - - - - - -
24/10:30am 21.7 S 12 15 1021.1 - 0.0 - - - - - - -
24/10:00am 20.7 SW 10 15 1021.4 - 0.0 - - - - - - -
24/09:30am 20.1 SW 11 13 1021.4 - 0.0 - - - - - - -
24/09:00am 19.5 SW 12 15 1021.2 - 0.0 - - - - - - -
24/08:30am 19.4 SW 13 15 1021.0 - 0.0 - - - - - - -
24/08:00am 19.2 SW 13 15 1020.6 - 0.0 - - - - - - -
24/07:30am 19.2 WSW 12 18 1020.3 - 0.0 - - - - - - -
24/07:00am 18.7 SW 8 13 1019.9 - 0.0 - - - - - - -
24/06:30am 19.1 SW 11 14 1019.9 - 0.0 - - - - - - -
24/06:00am 18.7 SW 10 13 1019.6 - 0.0 - - - - - - -
24/05:30am 18.7 SW 10 13 1019.6 - 0.0 - - - - - - -
24/05:00am 20.9 S 12 15 1019.4 - 0.0 - - - - - - -
24/04:30am 20.8 S 13 16 1019.1 - 0.0 - - - - - - -
24/04:00am 20.9 S 13 16 1019.0 - 0.0 - - - - - - -
24/03:30am 20.9 S 15 17 1019.0 - 0.0 - - - - - - -
24/03:00am 21.3 S 16 19 1018.9 - 0.0 - - - - - - -
24/02:30am 21.9 S 12 16 1019.0 - 0.0 - - - - - - -
24/02:00am 22.4 SE 10 18 1019.0 - 0.0 - - - - - - -
24/01:30am 22.3 SE 11 17 1019.1 - 0.0 - - - - - - -
24/01:00am 22.1 SE 10 18 1019.3 - 0.0 - - - - - - -
24/12:30am 22.1 SE 13 19 1019.3 - 0.0 - - - - - - -
24/12:00am 22.1 SE 11 17 1019.4 - 0.0 - - - - - - -
 
Date/Time
EST
Temp

°C
Wind Pressure Rain
since 9am
mm
Weather Cloud Vis
km
Sea
Height
m
Swell
Dir
 
Speed
knots
Gust
knots
hPa Trend Height
m
Period
s
Dir
23/11:30pm 22.2 SE 13 19 1019.5 - 0.0 - - - - - - -
23/11:00pm 22.2 SE 12 18 1019.6 - 0.0 - - - - - - -
23/10:30pm 22.3 SE 12 18 1019.8 - 0.0 - - - - - - -
23/10:00pm 22.3 SE 10 16 1020.0 - 0.0 - - - - - - -
23/09:30pm 22.2 SE 9 15 1019.9 - 0.0 - - - - - - -
23/09:00pm 22.3 SE 11 17 1020.0 - 0.0 - - - - - - -
23/08:30pm 22.3 SE 9 14 1020.0 - 0.0 - - - - - - -
23/08:00pm 22.3 ESE 8 13 1019.8 - 0.0 - - - - - - -
23/07:30pm 22.1 ESE 8 14 1019.5 - 0.0 - - - - - - -
23/07:00pm 22.1 ESE 8 15 1019.3 - 0.0 - - - - - - -
23/06:30pm 22.1 ESE 9 16 1019.0 - 0.0 - - - - - - -
23/06:00pm 22.0 ESE 8 14 1018.6 - 0.0 - - - - - - -
23/05:30pm 22.1 SE 9 15 1018.4 - 0.0 - - - - - - -
23/05:00pm 22.3 ESE 9 14 1018.2 - 0.0 - - - - - - -
23/04:30pm 22.2 ESE 9 16 1017.8 - 0.0 - - - - - - -
23/04:00pm 22.1 SE 10 17 1017.5 - 0.0 - - - - - - -
23/03:30pm 22.1 ESE 11 17 1017.5 - 0.0 - - - - - - -
23/03:00pm 22.1 SE 10 18 1017.5 - 0.0 - - - - - - -
23/02:30pm 22.9 ESE 9 15 1017.6 - 0.0 - - - - - - -
23/02:00pm 23.1 SSE 5 11 1017.8 - 0.0 - - - - - - -
23/01:30pm 22.3 SSE 6 9 1018.1 - 0.0 - - - - - - -
23/01:00pm 21.8 S 11 15 1018.7 - 0.0 - - - - - - -
23/12:30pm 21.5 S 13 18 1019.1 - 0.0 - - - - - - -
23/12:00pm 21.3 S 13 17 1019.4 - 0.0 - - - - - - -
23/11:30am 21.2 S 13 19 1019.7 - 0.0 - - - - - - -
23/11:00am 21.2 S 15 19 1020.0 - 0.0 - - - - - - -
23/10:30am 21.0 S 16 19 1020.3 - 0.0 - - - - - - -
23/10:00am 21.3 S 17 21 1020.3 - 0.0 - - - - - - -
23/09:30am 21.2 S 17 20 1020.4 - 0.0 - - - - - - -
23/09:00am 21.2 S 17 21 1020.0 - 0.0 - - - - - - -
23/08:30am 21.5 S 18 22 1019.9 - 0.0 - - - - - - -
23/08:00am 21.4 S 19 22 1019.5 - 0.0 - - - - - - -
23/07:30am 21.6 S 21 26 1019.4 - 0.0 - - - - - - -
23/07:00am 21.9 S 21 26 1018.9 - 0.0 - - - - - - -
23/06:30am 22.1 S 19 23 1018.4 - 0.0 - - - - - - -
23/06:00am 22.3 S 21 24 1018.1 - 0.0 - - - - - - -
23/05:30am 22.5 S 20 24 1017.8 - 0.0 - - - - - - -
23/05:00am 22.5 S 21 23 1017.7 - 0.0 - - - - - - -
23/04:30am 22.7 S 15 19 1017.5 - 0.0 - - - - - - -
23/04:00am 22.7 SSW 17 20 1017.6 - 0.0 - - - - - - -
23/03:30am 22.9 SSW 18 23 1017.3 - 0.0 - - - - - - -
23/03:00am 23.1 SSW 20 24 1017.2 - 0.0 - - - - - - -
23/02:30am 23.4 S 20 24 1017.2 - 0.0 - - - - - - -
23/02:00am 23.7 S 20 25 1017.1 - 0.0 - - - - - - -
23/01:30am 24.0 S 21 24 1017.4 - 0.0 - - - - - - -
23/01:00am 24.3 S 20 24 1017.4 - 0.0 - - - - - - -
23/12:30am 24.6 S 22 25 1017.4 - 0.0 - - - - - - -
23/12:00am 24.9 S 22 27 1017.6 - 0.0 - - - - - - -
 
Date/Time
EST
Temp

°C
Wind Pressure Rain
since 9am
mm
Weather Cloud Vis
km
Sea
Height
m
Swell
Dir
 
Speed
knots
Gust
knots
hPa Trend Height
m
Period
s
Dir
22/11:30pm 25.1 S 20 24 1017.6 - 0.0 - - - - - - -
22/11:00pm 25.4 S 19 25 1017.6 - 0.0 - - - - - - -
22/10:30pm 25.7 S 19 22 1017.8 - 0.0 - - - - - - -
22/10:00pm 25.8 S 21 24 1017.8 - 0.0 - - - - - - -
22/09:30pm 26.1 S 22 26 1017.6 - 0.0 - - - - - - -
22/09:00pm 26.1 S 17 20 1017.6 - 0.0 - - - - - - -
22/08:30pm 25.9 S 12 16 1017.5 - 0.0 - - - - - - -
22/08:00pm 25.3 SSE 5 8 1017.3 - 0.0 - - - - - - -
22/07:30pm 25.1 SE 6 11 1017.0 - 0.0 - - - - - - -
22/07:00pm 25.2 SE 5 7 1016.6 - 0.0 - - - - - - -
22/06:30pm 25.5 SE 5 7 1016.2 - 0.0 - - - - - - -
22/06:00pm 25.8 S 5 6 1015.7 - 0.0 - - - - - - -
22/05:30pm 26.2 S 8 9 1015.3 - 0.0 - - - - - - -
22/05:00pm 26.5 S 7 11 1015.2 - 0.0 - - - - - - -
22/04:30pm 26.6 S 7 9 1015.0 - 0.0 - - - - - - -
22/04:00pm 26.3 S 8 10 1015.0 - 0.0 - - - - - - -
22/03:30pm 25.9 SSE 5 8 1014.9 - 0.0 - - - - - - -
22/03:00pm 25.9 S 7 10 1015.1 - 0.0 - - - - - - -
22/02:30pm 25.5 S 10 13 1015.2 - 0.0 - - - - - - -
22/02:00pm 25.1 S 12 15 1015.5 - 0.0 - - - - - - -
22/01:30pm 24.7 S 10 13 1015.8 - 0.0 - - - - - - -
22/01:00pm 24.7 S 8 12 1016.3 - 0.0 - - - - - - -
22/12:30pm 24.3 S 12 14 1016.9 - 0.0 - - - - - - -
22/12:00pm 24.3 S 13 15 1017.1 - 0.0 - - - - - - -
22/11:30am 24.2 S 13 15 1017.7 - 0.0 - - - - - - -
22/11:00am 24.3 SSW 9 11 1018.3 - 0.0 - - - - - - -
22/10:30am 23.7 SSW 10 12 1018.7 - 0.0 - - - - - - -
22/10:00am 23.5 SW 12 14 1019.0 - 0.0 - - - - - - -
22/09:30am 23.4 SW 14 16 1018.9 - 0.0 - - - - - - -
22/09:00am 23.1 SW 15 16 1018.8 - 0.2 - - - - - - -
22/08:30am 22.7 SW 15 17 1018.5 - 0.2 - - - - - - -
22/08:00am 22.7 SW 14 17 1018.2 - 0.2 - - - - - - -
22/07:30am 22.6 SW 14 15 1017.8 - 0.2 - - - - - - -
22/07:00am 22.8 SW 12 13 1017.4 - 0.2 - - - - - - -
22/06:30am 23.0 SW 12 14 1017.0 - 0.2 - - - - - - -
22/06:00am 24.2 SSW 11 14 1016.7 - 0.2 - - - - - - -
22/05:30am 22.8 SSW 17 21 1016.5 - 0.2 - - - - - - -
22/05:24am 23.2 SSW 15 21 1016.4 - 0.2 - - - - - - -
22/05:00am 23.3 SW 10 11 1015.9 - 0.2 - - - - - - -
22/04:30am 23.2 SW 11 12 1015.9 - 0.2 - - - - - - -
22/04:00am 23.0 SW 8 14 1015.9 - 0.2 - - - - - - -
22/03:30am 22.9 W 5 6 1015.7 - 0.2 - - - - - - -
22/03:00am 22.6 SW 9 10 1016.0 - 0.2 - - - - - - -
22/02:30am 22.5 WSW 9 11 1016.0 - 0.2 - - - - - - -
22/02:00am 22.7 WSW 10 12 1016.1 - 0.2 - - - - - - -
22/01:30am 22.6 WSW 10 11 1016.2 - 0.2 - - - - - - -
22/01:00am 23.5 WSW 8 10 1016.5 - 0.2 - - - - - - -
22/12:30am 24.1 SW 6 8 1016.5 - 0.2 - - - - - - -
22/12:00am 24.1 WSW 5 7 1016.5 - 0.2 - - - - - - -
 
Date/Time
EST
Temp

°C
Wind Pressure Rain
since 9am
mm
Weather Cloud Vis
km
Sea
Height
m
Swell
Dir
 
Speed
knots
Gust
knots
hPa Trend Height
m
Period
s
Dir
21/11:30pm 24.4 NW 5 6 1016.7 - 0.2 - - - - - - -
21/11:00pm 24.6 NNW 6 8 1016.7 - 0.2 - - - - - - -
21/10:30pm 24.7 NNW 5 7 1016.9 - 0.2 - - - - - - -
21/10:00pm 24.8 N 6 8 1016.8 - 0.2 - - - - - - -
21/09:30pm 24.9 N 8 9 1016.8 - 0.2 - - - - - - -
21/09:00pm 24.9 N 9 10 1016.9 - 0.2 - - - - - - -
21/08:30pm 25.0 NNE 8 10 1016.6 - 0.2 - - - - - - -
21/08:00pm 24.9 N 7 8 1016.6 - 0.2 - - - - - - -
21/07:30pm 24.9 N 6 8 1016.3 - 0.2 - - - - - - -
21/07:00pm 25.0 N 7 9 1016.0 - 0.2 - - - - - - -
21/06:30pm 25.0 N 8 10 1015.8 - 0.2 - - - - - - -
21/06:00pm 25.0 NNE 10 12 1015.4 - 0.2 - - - - - - -
21/05:30pm 24.9 NE 9 11 1015.2 - 0.2 - - - - - - -
21/05:00pm 25.0 NE 9 11 1015.1 - 0.2 - - - - - - -
21/04:30pm 25.1 NE 11 13 1014.8 - 0.2 - - - - - - -
21/04:00pm 25.3 NE 10 11 1014.7 - 0.2 - - - - - - -
21/03:30pm 25.7 ENE 6 8 1014.6 - 0.2 - - - - - - -
21/03:00pm 25.6 ENE 6 9 1014.7 - 0.2 - - - - - - -
21/02:30pm 25.7 E 7 8 1014.9 - 0.2 - - - - - - -
21/02:00pm 26.7 E 4 7 1015.3 - 0.2 - - - - - - -
21/01:30pm 25.9 E 4 5 1015.7 - 0.2 - - - - - - -

Other Formats:

Comma delimited format used in spreadsheet applications
http://www.bom.gov.au/fwo/IDQ60701/IDQ60701.94295.axf

JavaScript Object Notation format (JSON) in row-major order
http://www.bom.gov.au/fwo/IDQ60701/IDQ60701.94295.json